Terminal Aerodrome Forecast
Issued by NWS Los Angeles, CA

Current Version | Previous Version | Text Only | Print | Product List | Glossary On
Versions: 1 2 3 4 5 6 7 8 9 10 11 12 13 14 15 16 17 18 19 20 21 22 23 24 25 26 27 28 29 30 31 32
291
FTUS46 KLOX 042044 AAB
TAFSMX
TAF AMD
KSMX 042044Z 0421/0518 26010KT P6SM BKN035
     FM050000 26010KT P6SM BKN025 BKN150
     FM050300 30008KT P6SM OVC025
     FM050700 VRB03KT P6SM OVC025
     FM051500 16005KT P6SM VCSH OVC025=

USA.gov is the U.S. government's official web portal to all federal, state and local government web resources and services.